Time;durP1;ratioP1;P1;durP2;ratioP2;P2;SDS_P1;SDS_P2;PMS_P1;PMS_P2;Temp;Humidity;BMP_temperature;BMP_pressure;BME280_temperature;BME280_humidity;BME280_pressure;Samples;Min_cycle;Max_cycle;Signal;HPM_P1;HPM_P2
2021/07/27 00:01:59;;;;;;;42.83;25.38;;;19.40;92.60;;;;;;5039424;28;20473;-78
2021/07/27 00:04:25;;;;;;;41.63;25.85;;;19.40;92.30;;;;;;5021805;28;20041;-79
2021/07/27 00:06:52;;;;;;;35.63;22.13;;;19.40;92.30;;;;;;5040656;28;20041;-77
2021/07/27 00:09:17;;;;;;;37.78;25.63;;;19.40;92.40;;;;;;5054158;28;20087;-79
2021/07/27 00:11:43;;;;;;;41.58;25.00;;;19.40;92.40;;;;;;5037674;28;20419;-78
2021/07/27 00:14:08;;;;;;;41.92;24.85;;;19.40;92.40;;;;;;5033624;28;20486;-78
2021/07/27 00:16:36;;;;;;;41.33;25.55;;;19.40;92.40;;;;;;5035900;28;20033;-79
2021/07/27 00:19:01;;;;;;;42.75;25.27;;;19.30;92.40;;;;;;5034731;28;20030;-78
2021/07/27 00:21:27;;;;;;;46.75;28.40;;;19.40;92.50;;;;;;5034839;28;20034;-79
2021/07/27 00:23:52;;;;;;;43.83;26.60;;;19.30;92.60;;;;;;5018186;28;20087;-77
2021/07/27 00:26:23;;;;;;;44.30;25.95;;;19.30;92.60;;;;;;5034532;28;20389;-77
2021/07/27 00:28:49;;;;;;;43.42;25.08;;;19.30;92.80;;;;;;5034633;28;20029;-78
2021/07/27 00:31:16;;;;;;;45.35;26.10;;;19.40;92.60;;;;;;5034521;28;20033;-78
2021/07/27 00:33:42;;;;;;;52.55;28.35;;;19.30;92.60;;;;;;5051074;28;20013;-77
2021/07/27 00:36:09;;;;;;;50.85;28.30;;;19.30;92.70;;;;;;5050963;28;20021;-79
2021/07/27 00:38:35;;;;;;;45.42;26.10;;;19.30;92.70;;;;;;5034222;28;20037;-78
2021/07/27 00:41:00;;;;;;;43.92;27.08;;;19.30;92.70;;;;;;5034503;28;20056;-77
2021/07/27 00:43:26;;;;;;;40.92;24.83;;;19.30;92.70;;;;;;5034098;28;20033;-78
2021/07/27 00:45:52;;;;;;;49.22;29.58;;;19.30;92.70;;;;;;5035423;28;20040;-75
2021/07/27 00:48:17;;;;;;;45.45;29.33;;;19.30;93.20;;;;;;5034178;28;20021;-76
2021/07/27 00:50:43;;;;;;;46.22;29.17;;;19.20;92.80;;;;;;5033995;28;20030;-76
2021/07/27 00:53:09;;;;;;;52.53;31.00;;;19.20;92.90;;;;;;5033982;28;20025;-75
2021/07/27 00:55:36;;;;;;;47.35;29.05;;;19.20;92.90;;;;;;5033931;28;20057;-75
2021/07/27 00:58:02;;;;;;;55.17;33.72;;;19.20;92.90;;;;;;5035361;28;20028;-76
2021/07/27 01:00:28;;;;;;;56.47;33.58;;;19.10;93.00;;;;;;5033954;28;20022;-75
2021/07/27 01:02:54;;;;;;;56.72;34.42;;;19.10;93.10;;;;;;5034966;28;20066;-75
2021/07/27 01:05:20;;;;;;;54.22;32.08;;;19.10;93.20;;;;;;5050165;28;20116;-75
2021/07/27 01:07:46;;;;;;;57.95;35.22;;;19.00;93.10;;;;;;5034785;28;20054;-76
2021/07/27 01:10:14;;;;;;;58.88;35.30;;;19.00;93.10;;;;;;5033639;28;20017;-76
2021/07/27 01:12:40;;;;;;;60.47;36.47;;;19.00;93.10;;;;;;5050112;28;20491;-76
2021/07/27 01:15:07;;;;;;;59.72;35.42;;;19.00;93.20;;;;;;5033532;28;20061;-76
2021/07/27 01:17:33;;;;;;;57.17;34.25;;;19.00;93.10;;;;;;5033684;28;20029;-76
2021/07/27 01:44:01;;;;;;;60.60;35.30;;;18.90;93.10;;;;;;5032956;28;20064;-76
2021/07/27 01:46:28;;;;;;;59.25;34.80;;;18.90;93.10;;;;;;5034118;28;20095;-75
2021/07/27 01:48:54;;;;;;;56.75;32.17;;;18.80;93.00;;;;;;5033000;28;20021;-75
2021/07/27 01:51:19;;;;;;;52.13;33.42;;;18.90;93.10;;;;;;5033119;28;20030;-76
2021/07/27 01:53:52;;;;;;;55.42;33.72;;;18.90;93.10;;;;;;5033946;28;20461;-77
2021/07/27 01:56:19;;;;;;;58.80;34.58;;;18.90;93.00;;;;;;5033629;28;20025;-76
2021/07/27 01:58:49;;;;;;;52.20;32.25;;;18.80;93.00;;;;;;5033962;28;20029;-75
2021/07/27 02:01:16;;;;;;;59.90;36.28;;;18.80;93.00;;;;;;5032629;28;20029;-77
2021/07/27 02:03:41;;;;;;;58.97;36.58;;;18.80;93.00;;;;;;5032888;28;20034;-77
2021/07/27 02:06:07;;;;;;;59.28;36.20;;;18.80;93.00;;;;;;5048973;28;20484;-80
2021/07/27 02:08:33;;;;;;;55.75;36.03;;;18.80;92.90;;;;;;5033750;28;20037;-80
2021/07/27 02:11:11;;;;;;;59.03;35.92;;;18.80;92.90;;;;;;5016133;28;20021;-80
2021/07/27 02:13:53;;;;;;;59.50;35.95;;;18.80;93.00;;;;;;5034192;28;20029;-79
2021/07/27 02:16:19;;;;;;;59.25;36.13;;;18.80;93.00;;;;;;5033675;28;20056;-80
2021/07/27 02:18:44;;;;;;;63.65;35.70;;;18.80;93.00;;;;;;5048906;28;20465;-79
2021/07/27 02:21:10;;;;;;;63.33;37.35;;;18.80;93.00;;;;;;5032230;28;20061;-80
2021/07/27 02:23:36;;;;;;;58.40;36.42;;;18.80;93.00;;;;;;5032378;28;20030;-80
2021/07/27 02:26:02;;;;;;;60.30;37.33;;;18.80;93.00;;;;;;5033451;28;20029;-79
2021/07/27 02:28:28;;;;;;;57.30;36.90;;;18.80;93.00;;;;;;5032072;28;20080;-78
2021/07/27 02:30:56;;;;;;;59.97;37.47;;;18.80;93.00;;;;;;5032226;28;20029;-80
2021/07/27 02:33:22;;;;;;;63.70;41.00;;;18.80;93.00;;;;;;5031923;28;20029;-79
2021/07/27 02:35:48;;;;;;;63.10;40.67;;;18.80;93.00;;;;;;5031307;28;20040;-79
2021/07/27 02:38:15;;;;;;;65.53;40.08;;;18.80;93.00;;;;;;5048445;28;20021;-80
2021/07/27 02:40:41;;;;;;;66.72;40.72;;;18.70;93.00;;;;;;5048495;28;20561;-81
2021/07/27 02:43:10;;;;;;;69.25;42.97;;;18.70;93.00;;;;;;5033185;28;20038;-81
2021/07/27 02:45:36;;;;;;;66.82;43.90;;;18.70;93.00;;;;;;5031940;28;20071;-81
2021/07/27 02:48:06;;;;;;;64.72;40.90;;;18.70;93.00;;;;;;5015646;28;20078;-80
2021/07/27 02:50:34;;;;;;;71.50;44.47;;;18.60;93.00;;;;;;5031943;28;20100;-78
2021/07/27 02:53:00;;;;;;;68.50;43.70;;;18.60;93.00;;;;;;5033245;28;20022;-80
2021/07/27 02:55:26;;;;;;;72.35;44.33;;;18.60;93.00;;;;;;5032012;28;20432;-81
2021/07/27 02:57:52;;;;;;;67.93;42.83;;;18.50;93.00;;;;;;5033205;28;20025;-80
2021/07/27 03:00:18;;;;;;;68.32;42.88;;;18.50;93.00;;;;;;5048313;28;20064;-80
2021/07/27 03:02:47;;;;;;;67.38;42.25;;;18.40;93.00;;;;;;5048254;28;20025;-80
2021/07/27 03:05:14;;;;;;;66.72;41.58;;;18.40;93.10;;;;;;5031957;28;20033;-80
2021/07/27 03:10:22;;;;;;;62.88;41.10;;;18.40;93.20;;;;;;5032133;28;20029;-80
2021/07/27 03:12:54;;;;;;;68.53;40.97;;;18.40;93.20;;;;;;5048299;28;20141;-80
2021/07/27 03:15:25;;;;;;;65.45;40.83;;;18.40;93.20;;;;;;5048319;28;20033;-80
2021/07/27 03:17:56;;;;;;;68.22;41.55;;;18.50;93.30;;;;;;5048319;28;20175;-80
2021/07/27 03:20:23;;;;;;;64.38;42.45;;;18.50;93.30;;;;;;5033051;28;20017;-80
2021/07/27 03:22:53;;;;;;;64.88;42.30;;;18.50;93.30;;;;;;5031755;28;20030;-80
2021/07/27 03:25:19;;;;;;;67.10;44.72;;;18.50;93.30;;;;;;5031670;28;20029;-80
2021/07/27 03:27:47;;;;;;;68.90;41.25;;;18.50;93.30;;;;;;5031657;28;20034;-80
2021/07/27 03:30:14;;;;;;;63.53;41.08;;;18.60;93.30;;;;;;5048213;28;20535;-79
2021/07/27 03:32:41;;;;;;;69.72;43.88;;;18.50;93.20;;;;;;5032859;28;20021;-81
2021/07/27 03:35:07;;;;;;;71.70;42.67;;;18.50;93.20;;;;;;5048101;28;20492;-78
2021/07/27 03:37:33;;;;;;;65.07;42.65;;;18.50;93.20;;;;;;5047953;28;20029;-78
2021/07/27 03:39:59;;;;;;;64.45;41.58;;;18.50;93.20;;;;;;5047981;28;20022;-79
2021/07/27 03:42:25;;;;;;;65.80;42.20;;;18.50;93.30;;;;;;5048039;28;20132;-79
2021/07/27 03:44:55;;;;;;;68.57;44.45;;;18.50;93.20;;;;;;5048047;28;20108;-77
2021/07/27 03:47:20;;;;;;;66.82;42.28;;;18.40;93.20;;;;;;5032574;28;20033;-80
2021/07/27 03:49:46;;;;;;;60.92;39.28;;;18.50;93.30;;;;;;5035316;28;20032;-79
2021/07/27 03:52:11;;;;;;;66.28;42.72;;;18.50;93.20;;;;;;5035360;28;20071;-78
2021/07/27 03:54:37;;;;;;;53.63;36.28;;;18.50;93.30;;;;;;5035169;28;20493;-79
2021/07/27 03:57:04;;;;;;;58.42;38.88;;;18.40;93.20;;;;;;5035074;28;20026;-78
2021/07/27 03:59:34;;;;;;;62.28;39.85;;;18.40;93.20;;;;;;5036374;28;20021;-76
2021/07/27 04:02:00;;;;;;;57.58;39.22;;;18.40;93.20;;;;;;5040577;28;20036;-80
2021/07/27 04:04:26;;;;;;;62.10;40.03;;;18.40;93.20;;;;;;5035247;28;20025;-78
2021/07/27 04:06:53;;;;;;;56.42;39.50;;;18.40;93.30;;;;;;5034372;28;20045;-79
2021/07/27 04:09:19;;;;;;;60.42;37.78;;;18.40;93.20;;;;;;5036162;28;20020;-77
2021/07/27 04:11:45;;;;;;;55.13;35.25;;;18.40;93.30;;;;;;5018285;28;20026;-78
2021/07/27 04:14:11;;;;;;;54.97;37.13;;;18.40;93.30;;;;;;5018327;28;20079;-77
2021/07/27 04:16:40;;;;;;;53.00;36.30;;;18.50;93.30;;;;;;5033758;28;20083;-77
2021/07/27 04:19:06;;;;;;;53.53;36.97;;;18.40;93.30;;;;;;5018107;28;20026;-81
2021/07/27 04:21:33;;;;;;;53.88;34.78;;;18.40;93.20;;;;;;5035903;28;20029;-79
2021/07/27 04:24:00;;;;;;;53.55;34.10;;;18.40;93.30;;;;;;5034479;28;20467;-77
2021/07/27 04:26:29;;;;;;;51.65;35.80;;;18.40;93.30;;;;;;5034304;28;20441;-80
2021/07/27 04:28:55;;;;;;;46.95;32.60;;;18.40;93.20;;;;;;5017903;28;20516;-80
2021/07/27 04:31:21;;;;;;;47.20;31.38;;;18.40;93.20;;;;;;5035628;28;20421;-78
2021/07/27 04:33:47;;;;;;;43.58;28.88;;;18.40;93.20;;;;;;5034362;28;20029;-79
2021/07/27 04:36:12;;;;;;;50.85;34.17;;;18.40;93.10;;;;;;5034175;28;20087;-79
2021/07/27 04:38:39;;;;;;;47.05;32.70;;;18.40;93.10;;;;;;5017593;28;20026;-78
2021/07/27 04:41:04;;;;;;;46.90;31.50;;;18.30;93.20;;;;;;5035456;28;20105;-78
2021/07/27 04:43:30;;;;;;;48.55;33.42;;;18.30;93.10;;;;;;5034084;28;20118;-80
2021/07/27 04:45:57;;;;;;;49.53;33.22;;;18.30;93.20;;;;;;5033928;28;20428;-79
2021/07/27 04:48:23;;;;;;;50.63;32.45;;;18.20;93.20;;;;;;5034086;28;20028;-78
2021/07/27 04:50:49;;;;;;;46.72;30.75;;;18.30;93.30;;;;;;5033999;28;20025;-80
2021/07/27 04:53:20;;;;;;;45.10;30.85;;;18.30;93.30;;;;;;5017508;28;20113;-80
2021/07/27 04:55:46;;;;;;;44.50;30.48;;;18.30;93.30;;;;;;5034043;28;20025;-77
2021/07/27 04:58:12;;;;;;;43.25;28.20;;;18.30;93.30;;;;;;5017534;28;20477;-77
2021/07/27 05:00:37;;;;;;;40.55;26.95;;;18.30;93.30;;;;;;5016854;28;20021;-80
2021/07/27 05:03:03;;;;;;;43.35;29.23;;;18.30;93.30;;;;;;5035277;28;20109;-77
2021/07/27 05:05:28;;;;;;;41.70;27.58;;;18.30;93.30;;;;;;5033712;28;20036;-78
2021/07/27 05:07:54;;;;;;;42.38;29.05;;;18.30;93.30;;;;;;5017160;28;20560;-79
2021/07/27 05:10:20;;;;;;;44.45;28.90;;;18.20;93.20;;;;;;5017402;28;20026;-76
2021/07/27 05:12:46;;;;;;;40.78;28.52;;;18.30;93.30;;;;;;5033855;28;20029;-79
2021/07/27 05:15:12;;;;;;;37.25;26.83;;;18.30;93.30;;;;;;5033707;28;20076;-80
2021/07/27 05:17:38;;;;;;;41.40;28.80;;;18.30;93.20;;;;;;5017257;28;20469;-78
2021/07/27 05:20:06;;;;;;;37.88;26.58;;;18.30;93.30;;;;;;5033643;28;20614;-77
2021/07/27 05:22:32;;;;;;;39.70;27.33;;;18.30;93.20;;;;;;5034922;28;20029;-80
2021/07/27 05:24:58;;;;;;;38.47;25.10;;;18.30;93.20;;;;;;5033546;28;20026;-80
2021/07/27 05:27:25;;;;;;;37.47;23.83;;;18.20;93.10;;;;;;5017080;28;20026;-80
2021/07/27 05:29:54;;;;;;;33.75;23.33;;;18.20;93.40;;;;;;5033675;28;20381;-78
2021/07/27 05:32:21;;;;;;;33.67;23.17;;;18.30;93.10;;;;;;5033442;28;20061;-79
2021/07/27 05:34:47;;;;;;;33.55;21.80;;;18.20;93.10;;;;;;5033630;28;20358;-79
2021/07/27 05:37:12;;;;;;;33.78;23.10;;;18.20;93.10;;;;;;5016810;28;20128;-77
2021/07/27 05:39:38;;;;;;;35.30;24.00;;;18.20;93.10;;;;;;5034372;28;20056;-79
2021/07/27 05:42:04;;;;;;;36.80;23.38;;;18.20;93.00;;;;;;5033246;28;20028;-79
2021/07/27 05:44:30;;;;;;;32.58;23.88;;;18.20;93.00;;;;;;5033223;28;20034;-77
2021/07/27 05:46:56;;;;;;;35.35;23.38;;;18.20;93.00;;;;;;5034192;28;20561;-79
2021/07/27 05:49:25;;;;;;;29.10;21.00;;;18.20;93.00;;;;;;5034177;28;20025;-78
2021/07/27 05:51:51;;;;;;;36.60;25.25;;;18.20;93.30;;;;;;5033144;28;20081;-78
2021/07/27 05:54:19;;;;;;;33.28;22.35;;;18.30;93.00;;;;;;5034304;28;20021;-79
2021/07/27 05:56:48;;;;;;;34.50;23.70;;;18.20;92.90;;;;;;5016777;28;20064;-80
2021/07/27 05:59:14;;;;;;;31.23;21.50;;;18.30;92.90;;;;;;5032736;28;20026;-79
2021/07/27 06:01:41;;;;;;;27.73;19.92;;;18.30;92.90;;;;;;5033002;28;20031;-77
2021/07/27 06:04:07;;;;;;;34.53;21.65;;;18.30;92.90;;;;;;5032784;28;20076;-79
2021/07/27 06:06:32;;;;;;;33.97;22.50;;;18.30;92.90;;;;;;5032398;28;20034;-80
2021/07/27 06:09:00;;;;;;;31.73;22.92;;;18.40;92.80;;;;;;5032892;28;20029;-79
2021/07/27 06:11:25;;;;;;;26.50;20.00;;;18.40;92.80;;;;;;5031669;28;20083;-76
2021/07/27 06:13:51;;;;;;;31.50;20.92;;;18.50;92.70;;;;;;5032669;28;20022;-78
2021/07/27 06:16:16;;;;;;;31.30;20.17;;;18.50;92.60;;;;;;5032440;28;20022;-78
2021/07/27 06:18:42;;;;;;;29.50;20.83;;;18.60;92.50;;;;;;5016357;28;20029;-77
2021/07/27 06:21:07;;;;;;;26.77;18.95;;;18.60;92.50;;;;;;5016088;28;20040;-78
2021/07/27 06:23:33;;;;;;;28.75;20.13;;;18.60;92.50;;;;;;5016406;28;20033;-79
2021/07/27 06:26:04;;;;;;;28.45;19.70;;;18.70;92.50;;;;;;5032358;28;20057;-78
2021/07/27 06:28:29;;;;;;;27.92;18.77;;;18.70;92.30;;;;;;5033632;28;20021;-78
2021/07/27 06:30:55;;;;;;;25.70;18.08;;;18.80;92.30;;;;;;5015879;28;20382;-77
2021/07/27 06:33:20;;;;;;;27.13;20.73;;;18.90;92.30;;;;;;5032334;28;20037;-79
2021/07/27 06:35:46;;;;;;;29.20;21.58;;;18.90;92.20;;;;;;5015748;28;20033;-79
2021/07/27 06:38:12;;;;;;;31.40;21.38;;;19.00;92.10;;;;;;5032168;28;20038;-78
2021/07/27 06:40:37;;;;;;;29.75;21.83;;;19.00;91.80;;;;;;5015928;28;20065;-77
2021/07/27 06:43:03;;;;;;;30.42;21.17;;;19.00;91.70;;;;;;5032317;28;20072;-77
2021/07/27 06:45:29;;;;;;;28.17;19.58;;;19.10;91.60;;;;;;5033219;28;20030;-80
2021/07/27 06:47:54;;;;;;;27.00;19.35;;;19.10;91.60;;;;;;5015740;28;20032;-78
2021/07/27 06:50:20;;;;;;;27.90;19.08;;;19.20;91.60;;;;;;5033238;28;20378;-80
2021/07/27 06:52:45;;;;;;;25.98;18.65;;;19.20;91.50;;;;;;5032036;28;20030;-78
2021/07/27 06:55:11;;;;;;;25.88;19.88;;;19.30;91.60;;;;;;5015471;28;20029;-80
2021/07/27 06:57:37;;;;;;;25.30;18.73;;;19.40;91.50;;;;;;5032160;28;20034;-80
2021/07/27 07:00:06;;;;;;;25.65;19.25;;;19.40;91.50;;;;;;5032020;28;20022;-77
2021/07/27 07:02:34;;;;;;;27.75;19.10;;;19.50;91.40;;;;;;5016151;28;20029;-78
2021/07/27 07:04:59;;;;;;;25.25;20.08;;;19.50;91.30;;;;;;5031912;28;20358;-79
2021/07/27 07:07:25;;;;;;;22.45;18.13;;;19.60;91.20;;;;;;5015478;28;20052;-80
2021/07/27 07:09:51;;;;;;;24.77;18.70;;;19.70;91.10;;;;;;5032039;28;20025;-77
2021/07/27 07:12:16;;;;;;;29.05;18.90;;;19.80;91.20;;;;;;5032115;28;20033;-78
2021/07/27 07:14:42;;;;;;;25.77;19.45;;;19.90;90.70;;;;;;5015377;28;20112;-80
2021/07/27 07:17:10;;;;;;;26.25;18.75;;;20.00;90.60;;;;;;5015521;28;20079;-80
2021/07/27 07:19:38;;;;;;;27.65;19.75;;;20.10;90.30;;;;;;5031961;28;20018;-82
2021/07/27 07:22:04;;;;;;;27.00;19.63;;;20.20;89.80;;;;;;5016644;28;20022;-80
2021/07/27 07:24:29;;;;;;;27.13;18.80;;;20.20;89.80;;;;;;5035974;28;20095;-79
2021/07/27 07:26:55;;;;;;;29.05;19.55;;;20.20;89.20;;;;;;5035613;28;20139;-79
2021/07/27 07:29:21;;;;;;;23.00;17.17;;;20.20;89.30;;;;;;5035771;28;20477;-80
2021/07/27 07:31:46;;;;;;;25.00;18.17;;;20.30;89.40;;;;;;5019211;28;20029;-80
2021/07/27 07:34:13;;;;;;;24.33;20.15;;;20.30;89.40;;;;;;5035724;28;20075;-77
2021/07/27 07:36:38;;;;;;;24.17;18.02;;;20.40;89.40;;;;;;5019281;28;20061;-80
2021/07/27 07:39:04;;;;;;;25.10;18.48;;;20.50;89.30;;;;;;5035509;28;20061;-79
2021/07/27 07:41:30;;;;;;;22.98;19.35;;;20.50;89.50;;;;;;5019118;28;20025;-80
2021/07/27 07:43:55;;;;;;;21.75;18.33;;;20.60;88.40;;;;;;5035420;28;20075;-80
2021/07/27 07:46:21;;;;;;;26.30;18.75;;;20.60;88.40;;;;;;5036742;28;20029;-79
2021/07/27 07:48:46;;;;;;;22.98;18.35;;;20.70;88.40;;;;;;5036545;28;20115;-79
2021/07/27 07:51:12;;;;;;;24.80;18.85;;;20.70;88.20;;;;;;5018788;28;20022;-79
2021/07/27 07:53:38;;;;;;;25.83;19.20;;;20.80;88.00;;;;;;5035417;28;20069;-81
2021/07/27 07:56:10;;;;;;;21.80;17.65;;;20.90;87.70;;;;;;5035235;28;20033;-80
2021/07/27 07:58:36;;;;;;;24.73;18.33;;;20.90;87.40;;;;;;5018665;28;20644;-79
2021/07/27 08:01:01;;;;;;;23.88;17.88;;;21.00;86.90;;;;;;5018792;28;20088;-80
2021/07/27 08:03:27;;;;;;;24.52;19.15;;;21.00;86.30;;;;;;5035292;28;20495;-81
2021/07/27 08:05:55;;;;;;;23.98;18.90;;;20.90;85.90;;;;;;5018590;28;20112;-81
2021/07/27 08:08:20;;;;;;;23.10;18.60;;;20.90;85.90;;;;;;5034971;28;20045;-79
2021/07/27 08:10:46;;;;;;;25.88;19.98;;;20.80;86.10;;;;;;5018409;28;20024;-79
2021/07/27 08:13:12;;;;;;;27.98;20.27;;;20.80;86.10;;;;;;5034691;28;20018;-77
2021/07/27 08:15:37;;;;;;;26.15;19.75;;;20.70;86.10;;;;;;5035113;28;20029;-82
2021/07/27 08:18:03;;;;;;;25.73;19.23;;;20.70;86.20;;;;;;5018412;28;20029;-76
2021/07/27 08:20:30;;;;;;;26.15;19.90;;;20.60;86.30;;;;;;5018316;28;20080;-76
2021/07/27 08:22:58;;;;;;;25.77;19.05;;;20.60;86.60;;;;;;5018403;28;20035;-76
2021/07/27 08:25:24;;;;;;;25.13;17.30;;;20.60;86.90;;;;;;5034692;28;20053;-76
2021/07/27 08:27:50;;;;;;;25.05;17.63;;;20.70;87.10;;;;;;5018040;28;20473;-77
2021/07/27 08:30:17;;;;;;;24.13;18.38;;;20.80;87.10;;;;;;5035703;28;20030;-76
2021/07/27 08:32:51;;;;;;;25.23;18.42;;;20.90;87.00;;;;;;5034608;28;20026;-76
2021/07/27 08:35:18;;;;;;;24.10;17.38;;;21.00;86.90;;;;;;5016756;28;20461;-77
2021/07/27 08:37:44;;;;;;;23.58;17.45;;;21.20;86.70;;;;;;5034325;28;20021;-78
2021/07/27 08:40:11;;;;;;;25.58;19.02;;;21.30;86.20;;;;;;5035435;28;20580;-76
2021/07/27 08:42:41;;;;;;;29.00;19.13;;;21.30;85.80;;;;;;5017938;28;20034;-77
2021/07/27 08:45:07;;;;;;;20.90;16.58;;;21.50;86.30;;;;;;5017866;28;20116;-77
2021/07/27 08:47:33;;;;;;;20.15;16.27;;;21.60;85.50;;;;;;5035631;28;20029;-77
2021/07/27 08:50:04;;;;;;;26.00;18.50;;;21.70;85.20;;;;;;5034164;28;20056;-77
2021/07/27 08:52:30;;;;;;;21.20;16.35;;;21.70;85.00;;;;;;5035314;28;20111;-78
2021/07/27 08:54:56;;;;;;;22.98;16.25;;;21.90;84.80;;;;;;5034076;28;20029;-78
2021/07/27 08:57:22;;;;;;;22.05;16.13;;;21.90;84.50;;;;;;5034205;28;20029;-78
2021/07/27 08:59:48;;;;;;;22.77;17.58;;;22.00;83.90;;;;;;5033900;28;20561;-76
2021/07/27 09:02:14;;;;;;;19.98;16.02;;;22.00;82.90;;;;;;5017581;28;20112;-78
2021/07/27 09:04:39;;;;;;;21.75;16.48;;;21.90;82.40;;;;;;5033888;28;20385;-77
2021/07/27 09:07:06;;;;;;;20.40;17.02;;;22.00;82.50;;;;;;5016985;28;20034;-77
2021/07/27 09:09:35;;;;;;;20.60;17.50;;;22.00;82.30;;;;;;5035014;28;20025;-79
2021/07/27 09:12:06;;;;;;;17.88;14.60;;;22.00;81.30;;;;;;5035150;28;20033;-81
2021/07/27 09:14:32;;;;;;;22.60;15.77;;;22.00;81.50;;;;;;5034225;28;20071;-80
2021/07/27 09:16:58;;;;;;;19.15;15.25;;;22.10;81.10;;;;;;5034026;28;20029;-80
2021/07/27 09:19:25;;;;;;;20.65;13.82;;;22.20;80.90;;;;;;5034862;28;20049;-76
2021/07/27 09:22:01;;;;;;;19.95;14.50;;;22.30;80.90;;;;;;5033451;28;20052;-78
2021/07/27 09:24:28;;;;;;;21.60;13.45;;;22.50;80.60;;;;;;5033293;28;20535;-78
2021/07/27 09:26:56;;;;;;;16.27;12.80;;;22.70;80.40;;;;;;5033514;28;20036;-78
2021/07/27 09:29:27;;;;;;;16.95;12.27;;;22.90;79.20;;;;;;5034685;28;20022;-77
2021/07/27 09:31:55;;;;;;;12.85;11.00;;;22.90;77.80;;;;;;5017723;28;20037;-78
2021/07/27 09:34:26;;;;;;;13.55;11.45;;;23.00;78.00;;;;;;5034633;28;20078;-77
2021/07/27 09:37:02;;;;;;;14.40;10.65;;;23.00;77.40;;;;;;5033316;28;20044;-78
2021/07/27 09:39:28;;;;;;;15.40;9.60;;;23.10;77.10;;;;;;5033306;28;20029;-78
2021/07/27 09:42:00;;;;;;;16.27;11.00;;;23.20;77.10;;;;;;5033321;28;20034;-78
2021/07/27 09:44:28;;;;;;;15.07;11.88;;;23.30;77.00;;;;;;5034380;28;20029;-79
2021/07/27 09:46:56;;;;;;;15.27;11.57;;;23.40;75.90;;;;;;5034184;28;20025;-79
2021/07/27 09:49:22;;;;;;;14.68;11.48;;;23.40;74.80;;;;;;5033904;28;20029;-81
2021/07/27 09:51:49;;;;;;;14.15;10.40;;;23.50;73.70;;;;;;5032711;28;20080;-79
2021/07/27 09:54:15;;;;;;;15.70;10.95;;;23.60;73.30;;;;;;5016044;28;20036;-78
2021/07/27 09:56:44;;;;;;;14.73;10.13;;;23.60;72.80;;;;;;5032394;28;20029;-76
2021/07/27 09:59:10;;;;;;;10.75;8.68;;;23.60;72.80;;;;;;5033973;28;20547;-75
2021/07/27 10:01:39;;;;;;;14.50;9.40;;;23.70;72.80;;;;;;5032668;28;20095;-75
2021/07/27 10:04:05;;;;;;;12.98;9.82;;;23.70;72.50;;;;;;5033832;28;20428;-74
2021/07/27 10:06:35;;;;;;;12.60;10.23;;;23.80;72.00;;;;;;5032823;28;20064;-75
2021/07/27 10:09:03;;;;;;;11.05;9.50;;;23.70;71.90;;;;;;5032277;28;20054;-74
2021/07/27 10:11:38;;;;;;;13.98;10.05;;;23.80;71.90;;;;;;5032419;28;20040;-74
2021/07/27 10:14:09;;;;;;;12.10;9.68;;;23.80;71.10;;;;;;5032746;28;20370;-76
2021/07/27 10:16:36;;;;;;;12.80;9.75;;;23.90;70.90;;;;;;5033937;28;20064;-74
2021/07/27 10:19:18;;;;;;;14.50;9.95;;;24.00;70.60;;;;;;5032264;28;20025;-74
2021/07/27 10:21:44;;;;;;;13.25;9.45;;;24.00;70.50;;;;;;5032285;28;20030;-74
2021/07/27 10:24:23;;;;;;;12.90;9.95;;;24.00;70.40;;;;;;5032337;28;20079;-75
2021/07/27 10:26:49;;;;;;;12.45;9.90;;;24.00;70.10;;;;;;5033510;28;20121;-75
2021/07/27 10:29:37;;;;;;;14.00;8.75;;;24.20;69.20;;;;;;5048653;28;20028;-74
2021/07/27 10:32:14;;;;;;;13.18;9.77;;;24.30;69.00;;;;;;5032950;28;20029;-75
2021/07/27 10:34:43;;;;;;;11.55;9.35;;;24.30;68.60;;;;;;5033272;28;20060;-75
2021/07/27 10:37:11;;;;;;;11.30;9.45;;;24.20;68.60;;;;;;5032102;28;20041;-74
2021/07/27 10:39:45;;;;;;;12.73;10.20;;;24.20;68.60;;;;;;5033010;28;20477;-75
2021/07/27 10:42:11;;;;;;;13.18;10.90;;;24.20;68.70;;;;;;5033157;28;20354;-74
2021/07/27 10:44:37;;;;;;;16.20;11.93;;;24.10;68.90;;;;;;5031591;28;20079;-75
2021/07/27 10:47:03;;;;;;;18.23;11.73;;;24.00;69.00;;;;;;5031894;28;20036;-73
2021/07/27 10:49:28;;;;;;;17.27;11.20;;;23.80;69.20;;;;;;5032948;28;20030;-73
2021/07/27 10:51:59;;;;;;;13.95;11.40;;;23.80;69.60;;;;;;5015493;28;20385;-73
2021/07/27 10:54:30;;;;;;;16.73;12.13;;;23.70;70.10;;;;;;5031957;28;20022;-72
2021/07/27 10:56:59;;;;;;;16.92;12.10;;;23.60;70.50;;;;;;5032897;28;20470;-72
2021/07/27 10:59:32;;;;;;;13.65;11.75;;;23.60;70.90;;;;;;5031756;28;20025;-71
2021/07/27 11:01:59;;;;;;;16.23;11.60;;;23.60;70.90;;;;;;5031841;28;20477;-73
2021/07/27 11:04:32;;;;;;;17.00;12.68;;;23.60;71.10;;;;;;5032997;28;20500;-72
2021/07/27 11:07:13;;;;;;;13.43;11.25;;;23.60;71.30;;;;;;5032812;28;20033;-72
2021/07/27 11:09:59;;;;;;;16.55;11.77;;;23.60;71.50;;;;;;5032961;28;20083;-71
2021/07/27 11:12:32;;;;;;;17.80;13.68;;;23.60;72.40;;;;;;5032949;28;20144;-71
2021/07/27 11:15:18;;;;;;;15.57;12.40;;;23.50;71.50;;;;;;5031811;28;20108;-71
2021/07/27 11:17:46;;;;;;;12.95;10.48;;;23.60;71.70;;;;;;5032976;28;20076;-72
2021/07/27 11:20:19;;;;;;;17.08;11.80;;;23.90;72.00;;;;;;5031740;28;20021;-73
2021/07/27 11:22:50;;;;;;;15.70;11.63;;;24.20;71.40;;;;;;5032974;28;20044;-75
2021/07/27 11:25:18;;;;;;;14.30;10.50;;;24.50;70.80;;;;;;5032842;28;20083;-74
2021/07/27 11:27:43;;;;;;;13.55;10.63;;;24.50;69.70;;;;;;5031635;28;20112;-73
2021/07/27 11:30:10;;;;;;;17.83;12.10;;;24.50;69.20;;;;;;5032685;28;20049;-74
2021/07/27 11:32:47;;;;;;;15.23;12.20;;;24.30;68.50;;;;;;5032906;28;20026;-73
2021/07/27 11:35:15;;;;;;;15.73;12.43;;;24.10;68.50;;;;;;5032722;28;20470;-75
2021/07/27 11:37:45;;;;;;;16.00;9.32;;;23.90;69.30;;;;;;5031410;28;20124;-78
2021/07/27 11:40:24;;;;;;;10.63;6.68;;;23.30;77.90;;;;;;5014985;28;20037;-74
2021/07/27 11:43:05;;;;;;;14.80;4.72;;;22.00;80.40;;;;;;5048063;28;20021;-73
2021/07/27 11:45:32;;;;;;;8.82;2.90;;;20.70;82.40;;;;;;5032394;28;20075;-77
2021/07/27 11:47:58;;;;;;;8.43;4.55;;;19.70;85.00;;;;;;5032976;28;20132;-72
2021/07/27 11:50:34;;;;;;;7.68;4.28;;;19.00;87.30;;;;;;5052376;28;20032;-72
2021/07/27 11:53:02;;;;;;;9.05;4.20;;;18.60;89.50;;;;;;5052576;28;20029;-72
2021/07/27 11:55:32;;;;;;;7.53;3.45;;;18.30;90.20;;;;;;5048425;28;20059;-71
2021/07/27 11:57:58;;;;;;;10.90;4.75;;;18.10;90.80;;;;;;5031222;28;20093;-72
2021/07/27 12:00:23;;;;;;;10.45;5.25;;;17.90;91.30;;;;;;5030920;28;20029;-71
2021/07/27 12:02:49;;;;;;;8.00;4.63;;;17.80;91.40;;;;;;5031542;28;20095;-70
2021/07/27 12:05:15;;;;;;;9.45;4.35;;;17.80;91.60;;;;;;5032847;28;20044;-70
2021/07/27 12:07:41;;;;;;;6.65;3.97;;;17.90;91.90;;;;;;5031289;28;20501;-70
2021/07/27 12:10:08;;;;;;;10.82;4.93;;;18.00;92.00;;;;;;5034563;28;20028;-71
2021/07/27 12:12:34;;;;;;;6.88;4.00;;;18.10;92.20;;;;;;5018621;28;20117;-71
2021/07/27 12:15:00;;;;;;;8.70;4.30;;;18.30;92.70;;;;;;5034897;28;20396;-73
2021/07/27 12:17:26;;;;;;;9.30;4.50;;;18.50;93.00;;;;;;5036309;28;20032;-73
2021/07/27 12:19:52;;;;;;;9.90;4.43;;;18.70;93.50;;;;;;5036209;28;20108;-73
2021/07/27 12:22:18;;;;;;;8.90;4.20;;;18.90;93.70;;;;;;5018419;28;20013;-72
2021/07/27 12:24:43;;;;;;;8.00;4.30;;;19.10;94.20;;;;;;5034939;28;20021;-73
2021/07/27 12:27:10;;;;;;;6.30;3.72;;;19.20;93.90;;;;;;5035841;28;20022;-72
2021/07/27 12:29:36;;;;;;;6.95;3.90;;;19.30;94.10;;;;;;5035802;28;20038;-72
2021/07/27 12:32:03;;;;;;;8.30;4.25;;;19.40;94.20;;;;;;5036115;28;20034;-72
2021/07/27 12:34:28;;;;;;;7.07;3.97;;;19.50;94.30;;;;;;5034585;28;20017;-72
2021/07/27 12:36:57;;;;;;;9.38;4.72;;;19.60;94.40;;;;;;5034619;28;20099;-73
2021/07/27 12:39:23;;;;;;;6.97;4.38;;;19.80;94.70;;;;;;5035579;28;20115;-73
2021/07/27 12:41:52;;;;;;;6.70;3.90;;;19.90;95.20;;;;;;5035783;28;20034;-77
2021/07/27 12:44:18;;;;;;;7.82;4.00;;;20.20;95.20;;;;;;5035699;28;20040;-77
2021/07/27 12:46:44;;;;;;;7.32;4.25;;;20.40;95.50;;;;;;5034144;28;20030;-77
2021/07/27 12:49:14;;;;;;;9.73;4.53;;;20.80;96.20;;;;;;5035710;28;20100;-78
2021/07/27 12:51:40;;;;;;;5.85;3.95;;;21.30;97.00;;;;;;5034608;28;20056;-78
2021/07/27 12:54:07;;;;;;;6.28;4.40;;;21.80;97.40;;;;;;5034298;28;20061;-78
2021/07/27 12:56:37;;;;;;;8.60;4.38;;;22.20;97.90;;;;;;5035372;28;20030;-78